»·PEaware :: UAL102 KLAS-KSNA

UAL102 :: KLAS-KSNA

FLIGHT INFORMATION

Flight Status: Arrived
Operator:
United Airlines
More flights by this operator :: More flights under this callsign
Pilot: Cole F. (14495)
Aircraft: BOEING 737-200
(B732)
More flights by this aircraft type
Origin: KLAS McCarran Intl
United States
Destination: KSNA John Wayne-Orange Co
United States
More flights between these airports :: More routes between these airports
Route: +MCCRN5 HEC KAYOH7
File this flight plan on PilotEdge
Remarks:
Altitude:
(Current/Filed)
32,000ft
Speed:
(Current/Filed)
428kts
Departed: 21-Jan-18 05:45 PM
Arrived: 21-Jan-18 06:31 PM
Distance/Time
Traveled:
197nm/0:46
Distance/Time
To Go:
Arrived

Flight Plot

Page will automatically refresh every two minutes.

Flight plan parsing failed; only flown route is shown


Map Options




Map Legend


Flown Route
Filed Route
Departure Airport
Arrival Airport
Navaid (VOR, NDB)
Fix

Horizontal Profiles

Position Reports

Time Latitude Longitude Heading Altitude Ground
Speed
21-Jan-18 17:26 36.082539 -115.140274 90 2150ft 0kts
21-Jan-18 17:27 36.082539 -115.140274 90 2150ft 0kts
21-Jan-18 17:28 36.082539 -115.140274 90 2150ft 0kts
21-Jan-18 17:29 36.082539 -115.140274 90 2150ft 0kts
21-Jan-18 17:30 36.082539 -115.140274 90 2150ft 0kts
21-Jan-18 17:31 36.082539 -115.140274 90 2150ft 0kts
21-Jan-18 17:32 36.082539 -115.140274 90 2150ft 0kts
21-Jan-18 17:33 36.082539 -115.140274 90 2150ft 0kts
21-Jan-18 17:34 36.082539 -115.140274 90 2150ft 0kts
21-Jan-18 17:35 36.082539 -115.140274 90 2150ft 0kts
21-Jan-18 17:36 36.082539 -115.140274 90 2150ft 0kts
21-Jan-18 17:37 36.082539 -115.140274 90 2150ft 0kts
21-Jan-18 17:38 36.082539 -115.140274 90 2150ft 0kts
21-Jan-18 17:39 36.082538 -115.140671 89 2150ft 2kts
21-Jan-18 17:40 36.082402 -115.141287 28 2150ft 2kts
21-Jan-18 17:41 36.082210 -115.141327 358 2150ft 0kts
21-Jan-18 17:42 36.082210 -115.141327 358 2150ft 0kts
21-Jan-18 17:43 36.082227 -115.141329 354 2150ft 0kts
21-Jan-18 17:44 36.080142 -115.141571 179 2150ft 10kts
21-Jan-18 17:45 36.078287 -115.139616 89 2150ft 12kts
21-Jan-18 17:46 36.078266 -115.135050 89 2150ft 13kts
21-Jan-18 17:47 36.078267 -115.130079 90 2150ft 14kts
21-Jan-18 17:48 36.078280 -115.124787 90 2150ft 14kts
21-Jan-18 17:49 36.077422 -115.121409 140 2150ft 0kts
21-Jan-18 17:50 36.076927 -115.121265 175 2150ft 11kts
21-Jan-18 17:51 36.076502 -115.148658 270 2415ft 191kts
21-Jan-18 17:52 36.078473 -115.229866 267 5688ft 273kts
21-Jan-18 17:53 36.022336 -115.292708 201 8448ft 288kts
21-Jan-18 17:54 35.947876 -115.328326 201 10577ft 329kts
21-Jan-18 17:55 35.860099 -115.372583 201 13277ft 354kts
21-Jan-18 17:56 35.770909 -115.411675 201 16358ft 356kts
21-Jan-18 17:57 35.674792 -115.446690 201 18794ft 367kts
21-Jan-18 17:58 35.575703 -115.482013 201 20882ft 378kts
21-Jan-18 17:59 35.473281 -115.517843 201 22709ft 388kts
21-Jan-18 18:00 35.368366 -115.553838 201 24330ft 396kts
21-Jan-18 18:01 35.260785 -115.589873 201 25708ft 406kts
21-Jan-18 18:02 35.152497 -115.624564 201 27485ft 401kts
21-Jan-18 18:03 35.047898 -115.658053 211 28301ft 407kts
21-Jan-18 18:04 34.994883 -115.762597 261 28322ft 384kts
21-Jan-18 18:05 34.965335 -115.890149 255 28325ft 398kts
21-Jan-18 18:06 34.929008 -116.019231 254 28323ft 406kts
21-Jan-18 18:07 34.892624 -116.142811 253 28313ft 402kts
21-Jan-18 18:08 34.861431 -116.245883 254 28312ft 398kts
21-Jan-18 18:09 34.823821 -116.371812 254 28312ft 395kts
21-Jan-18 18:10 34.785722 -116.494463 244 26780ft 379kts
21-Jan-18 18:11 34.709435 -116.580281 228 24933ft 364kts
21-Jan-18 18:12 34.640303 -116.661597 230 23420ft 342kts
21-Jan-18 18:13 34.575684 -116.741223 231 23767ft 363kts
21-Jan-18 18:14 34.505205 -116.828911 231 24316ft 364kts
21-Jan-18 18:15 34.435134 -116.916225 231 24320ft 363kts
21-Jan-18 18:16 34.349519 -116.980332 191 24277ft 394kts
21-Jan-18 18:17 34.243705 -117.005650 201 24257ft 382kts
21-Jan-18 18:18 34.144408 -117.041683 203 22668ft 370kts
21-Jan-18 18:19 34.049744 -117.078349 204 20267ft 344kts
21-Jan-18 18:20 33.962998 -117.112350 203 17403ft 318kts
21-Jan-18 18:21 33.883621 -117.143404 202 14447ft 310kts
21-Jan-18 18:22 33.802086 -117.175284 201 11050ft 315kts
21-Jan-18 18:23 33.744990 -117.240489 269 8959ft 299kts
21-Jan-18 18:24 33.758236 -117.335494 281 7955ft 268kts
21-Jan-18 18:25 33.770862 -117.419571 279 7953ft 246kts
21-Jan-18 18:26 33.781265 -117.497451 277 7957ft 230kts
21-Jan-18 18:27 33.782416 -117.574885 271 7961ft 231kts
21-Jan-18 18:28 33.782845 -117.650484 270 7992ft 224kts
21-Jan-18 18:29 33.782858 -117.725223 275 7977ft 231kts
21-Jan-18 18:30 33.795309 -117.800178 281 6502ft 227kts
21-Jan-18 18:31 33.817614 -117.867653 331 4816ft 226kts
21-Jan-18 18:32 33.854772 -117.832272 113 4003ft 205kts
21-Jan-18 18:33 33.803677 -117.799468 161 3993ft 220kts
21-Jan-18 18:34 33.755262 -117.818930 218 3136ft 191kts
21-Jan-18 18:35 33.710879 -117.846021 210 1029ft 154kts
21-Jan-18 18:36 33.678477 -117.867078 208 65ft 108kts
21-Jan-18 18:37 33.669285 -117.871789 131 65ft 0kts

Navigation Log

Ident Type
Flight plan parsing failed, navigation log unavailable